This is the latest recevied weather packets stored in our database for station/object IW8XOI-10. If no packets are shown the sender has not sent any weather packets the latest 10 day(s).
| Time | Temp. | Humidity | Pressure | Rain* | Wind** | Luminosity | Snow |
|---|---|---|---|---|---|---|---|
| 1777524974 | 22.22° C | 49% | 1026.6 hPa | - | - | - | - |
| 1777521374 | 22.78° C | 48% | 1026.6 hPa | - | - | - | - |
| 1777517775 | 23.33° C | 48% | 1026.4 hPa | - | - | - | - |
| 1777514174 | 23.89° C | 47% | 1026.5 hPa | - | - | - | - |
| 1777510574 | 25° C | 47% | 1026.1 hPa | - | - | - | - |
| 1777506974 | 25.56° C | 46% | 1026.2 hPa | - | - | - | - |
| 1777503375 | 26.67° C | 45% | 1026.4 hPa | - | - | - | - |
| 1777499775 | 27.78° C | 45% | 1026.3 hPa | - | - | - | - |
| 1777496175 | 29.44° C | 44% | 1026.4 hPa | - | - | - | - |
| 1777492576 | 30.56° C | 43% | 1026.2 hPa | - | - | - | - |
| 1777488978 | 32.22° C | 42% | 1025.6 hPa | - | - | - | - |
| 1777485373 | 33.33° C | 42% | 1025.1 hPa | - | - | - | - |
| 1777482087 | 33.89° C | 42% | 1024.8 hPa | - | - | - | - |
| 1777481782 | 33.89° C | 42% | 1024.8 hPa | - | - | - | - |
| 1777478173 | 33.89° C | 40% | 1024.7 hPa | - | - | - | - |
| 1777474573 | 32.78° C | 41% | 1024.8 hPa | - | - | - | - |
| 1777470973 | 32.22° C | 42% | 1025.1 hPa | - | - | - | - |
| 1777467373 | 31.67° C | 43% | 1025.2 hPa | - | - | - | - |
| 1777463773 | 30° C | 43% | 1025.6 hPa | - | - | - | - |
| 1777460174 | 28.33° C | 44% | 1026 hPa | - | - | - | - |
| 1777456574 | 26.11° C | 45% | 1026.3 hPa | - | - | - | - |
| 1777452974 | 23.89° C | 46% | 1026.4 hPa | - | - | - | - |
| 1777449374 | 22.22° C | 46% | 1026.3 hPa | - | - | - | - |
| 1777445781 | 21.67° C | 46% | 1026 hPa | - | - | - | - |
| 1777442174 | 22.22° C | 45% | 1025.8 hPa | - | - | - | - |
* Rain since midnight (hover to see other rain measurements)
** Current wind speed in m/s (hover to see current wind gust speed)